sensor_id;sensor_type;location;lat;lon;timestamp;pressure;altitude;pressure_sealevel;temperature;humidity
57056;BME280;42945;51.718;5.324;2022-12-17T00:02:17;101989.97;;;-2.54;100.00
57056;BME280;42945;51.718;5.324;2022-12-17T00:05:01;101986.50;;;-2.54;100.00
57056;BME280;42945;51.718;5.324;2022-12-17T00:07:45;102082.63;;;-1.96;100.00
57056;BME280;42945;51.718;5.324;2022-12-17T00:10:29;102105.34;;;-1.83;100.00
57056;BME280;42945;51.718;5.324;2022-12-17T00:13:21;102101.81;;;-1.87;100.00
57056;BME280;42945;51.718;5.324;2022-12-17T00:16:06;102069.50;;;-2.07;100.00
57056;BME280;42945;51.718;5.324;2022-12-17T00:18:50;102111.94;;;-2.07;100.00
57056;BME280;42945;51.718;5.324;2022-12-17T00:21:34;102033.09;;;-2.07;100.00
57056;BME280;42945;51.718;5.324;2022-12-17T00:24:18;102063.63;;;-1.92;100.00
57056;BME280;42945;51.718;5.324;2022-12-17T00:27:04;101830.47;;;-3.32;100.00
57056;BME280;42945;51.718;5.324;2022-12-17T00:29:48;102100.66;;;-2.09;100.00
57056;BME280;42945;51.718;5.324;2022-12-17T00:32:32;102028.78;;;-2.07;100.00
57056;BME280;42945;51.718;5.324;2022-12-17T00:35:27;102048.50;;;-2.20;100.00
57056;BME280;42945;51.718;5.324;2022-12-17T00:38:17;102076.31;;;-2.14;100.00
57056;BME280;42945;51.718;5.324;2022-12-17T00:41:02;102072.00;;;-2.12;100.00
57056;BME280;42945;51.718;5.324;2022-12-17T00:43:46;102067.66;;;-2.14;100.00
57056;BME280;42945;51.718;5.324;2022-12-17T00:46:30;102077.94;;;-2.22;100.00
57056;BME280;42945;51.718;5.324;2022-12-17T00:49:14;102107.44;;;-2.19;100.00
57056;BME280;42945;51.718;5.324;2022-12-17T00:51:58;102079.75;;;-2.16;100.00
57056;BME280;42945;51.718;5.324;2022-12-17T00:54:56;102077.19;;;-2.13;100.00
57056;BME280;42945;51.718;5.324;2022-12-17T00:57:39;102120.66;;;-2.03;100.00
57056;BME280;42945;51.718;5.324;2022-12-17T01:00:23;102072.09;;;-2.07;100.00
57056;BME280;42945;51.718;5.324;2022-12-17T01:03:10;102108.56;;;-2.01;100.00
57056;BME280;42945;51.718;5.324;2022-12-17T01:05:54;102070.09;;;-2.24;100.00
57056;BME280;42945;51.718;5.324;2022-12-17T01:08:38;102099.69;;;-2.14;100.00
57056;BME280;42945;51.718;5.324;2022-12-17T01:11:23;101839.75;;;-3.47;100.00
57056;BME280;42945;51.718;5.324;2022-12-17T01:14:07;102014.63;;;-2.84;100.00
57056;BME280;42945;51.718;5.324;2022-12-17T01:16:51;102139.44;;;-2.23;100.00
57056;BME280;42945;51.718;5.324;2022-12-17T01:19:35;102120.47;;;-2.15;100.00
57056;BME280;42945;51.718;5.324;2022-12-17T01:22:19;102095.38;;;-2.15;100.00
57056;BME280;42945;51.718;5.324;2022-12-17T01:25:03;102093.56;;;-2.21;100.00
57056;BME280;42945;51.718;5.324;2022-12-17T01:27:48;102122.09;;;-2.22;100.00
57056;BME280;42945;51.718;5.324;2022-12-17T01:30:32;102144.50;;;-2.30;100.00
57056;BME280;42945;51.718;5.324;2022-12-17T01:33:16;102054.56;;;-2.21;100.00
57056;BME280;42945;51.718;5.324;2022-12-17T01:36:00;102144.63;;;-2.23;100.00
57056;BME280;42945;51.718;5.324;2022-12-17T01:38:44;102116.81;;;-2.28;100.00
57056;BME280;42945;51.718;5.324;2022-12-17T01:41:28;102003.41;;;-2.81;100.00
57056;BME280;42945;51.718;5.324;2022-12-17T01:47:23;102116.94;;;-2.19;100.00
57056;BME280;42945;51.718;5.324;2022-12-17T01:50:08;102138.53;;;-2.23;100.00
57056;BME280;42945;51.718;5.324;2022-12-17T01:52:54;102161.13;;;-2.21;100.00
57056;BME280;42945;51.718;5.324;2022-12-17T01:55:40;101870.13;;;-3.41;100.00
57056;BME280;42945;51.718;5.324;2022-12-17T01:58:24;102165.44;;;-2.20;100.00
57056;BME280;42945;51.718;5.324;2022-12-17T02:01:08;102090.97;;;-2.21;100.00
57056;BME280;42945;51.718;5.324;2022-12-17T02:03:53;102041.44;;;-2.83;100.00
57056;BME280;42945;51.718;5.324;2022-12-17T02:06:41;102148.00;;;-2.28;100.00
57056;BME280;42945;51.718;5.324;2022-12-17T02:09:46;101993.81;;;-2.85;100.00
57056;BME280;42945;51.718;5.324;2022-12-17T02:16:02;102132.63;;;-2.14;100.00
57056;BME280;42945;51.718;5.324;2022-12-17T02:18:52;101972.22;;;-2.84;100.00
57056;BME280;42945;51.718;5.324;2022-12-17T02:21:39;102127.44;;;-2.14;100.00
57056;BME280;42945;51.718;5.324;2022-12-17T02:24:38;102153.31;;;-2.19;100.00
57056;BME280;42945;51.718;5.324;2022-12-17T02:27:27;102097.00;;;-2.22;100.00
57056;BME280;42945;51.718;5.324;2022-12-17T02:30:13;102108.34;;;-2.16;100.00
57056;BME280;42945;51.718;5.324;2022-12-17T02:32:58;102104.03;;;-2.14;100.00
57056;BME280;42945;51.718;5.324;2022-12-17T02:36:04;102162.16;;;-2.11;100.00
57056;BME280;42945;51.718;5.324;2022-12-17T02:38:49;102142.22;;;-2.10;100.00
57056;BME280;42945;51.718;5.324;2022-12-17T02:41:41;101868.09;;;-3.58;100.00
57056;BME280;42945;51.718;5.324;2022-12-17T02:44:26;102167.47;;;-2.03;100.00
57056;BME280;42945;51.718;5.324;2022-12-17T02:47:13;102078.78;;;-2.25;100.00
57056;BME280;42945;51.718;5.324;2022-12-17T02:49:57;101927.94;;;-3.47;100.00
57056;BME280;42945;51.718;5.324;2022-12-17T02:52:45;102122.69;;;-2.40;100.00
57056;BME280;42945;51.718;5.324;2022-12-17T02:55:29;102106.25;;;-2.39;100.00
57056;BME280;42945;51.718;5.324;2022-12-17T02:58:13;102141.69;;;-2.44;100.00
57056;BME280;42945;51.718;5.324;2022-12-17T03:00:57;101925.88;;;-3.66;100.00
57056;BME280;42945;51.718;5.324;2022-12-17T03:03:41;102117.38;;;-2.46;100.00
57056;BME280;42945;51.718;5.324;2022-12-17T03:06:25;102066.13;;;-3.07;100.00
57056;BME280;42945;51.718;5.324;2022-12-17T03:09:28;102144.00;;;-2.60;100.00
57056;BME280;42945;51.718;5.324;2022-12-17T03:12:12;102139.84;;;-2.50;100.00
57056;BME280;42945;51.718;5.324;2022-12-17T03:14:57;102153.81;;;-2.43;100.00
57056;BME280;42945;51.718;5.324;2022-12-17T03:21:03;102183.19;;;-2.47;100.00
57056;BME280;42945;51.718;5.324;2022-12-17T03:23:47;102160.34;;;-2.64;100.00
57056;BME280;42945;51.718;5.324;2022-12-17T03:26:31;102125.63;;;-2.70;100.00
57056;BME280;42945;51.718;5.324;2022-12-17T03:29:15;102089.97;;;-3.26;100.00
57056;BME280;42945;51.718;5.324;2022-12-17T03:31:59;102214.84;;;-2.67;100.00
57056;BME280;42945;51.718;5.324;2022-12-17T03:34:43;102136.03;;;-2.70;100.00
57056;BME280;42945;51.718;5.324;2022-12-17T03:37:27;102125.84;;;-2.58;100.00
57056;BME280;42945;51.718;5.324;2022-12-17T03:40:11;102195.22;;;-2.51;100.00
57056;BME280;42945;51.718;5.324;2022-12-17T03:42:55;102160.63;;;-2.48;100.00
57056;BME280;42945;51.718;5.324;2022-12-17T03:45:39;102188.16;;;-2.60;100.00
57056;BME280;42945;51.718;5.324;2022-12-17T03:48:23;102170.00;;;-2.60;100.00
57056;BME280;42945;51.718;5.324;2022-12-17T03:51:07;102121.56;;;-2.54;100.00
57056;BME280;42945;51.718;5.324;2022-12-17T03:53:51;102184.91;;;-2.48;100.00
57056;BME280;42945;51.718;5.324;2022-12-17T03:56:35;102173.63;;;-2.50;100.00
57056;BME280;42945;51.718;5.324;2022-12-17T03:59:19;102174.25;;;-2.63;100.00
57056;BME280;42945;51.718;5.324;2022-12-17T04:02:03;102307.00;;;-2.01;100.00
57056;BME280;42945;51.718;5.324;2022-12-17T04:04:47;102172.41;;;-2.69;100.00
57056;BME280;42945;51.718;5.324;2022-12-17T04:07:31;102067.47;;;-3.29;100.00
57056;BME280;42945;51.718;5.324;2022-12-17T04:10:15;102203.84;;;-2.53;100.00
57056;BME280;42945;51.718;5.324;2022-12-17T04:12:59;102148.47;;;-2.51;100.00
57056;BME280;42945;51.718;5.324;2022-12-17T04:15:43;102222.13;;;-2.49;100.00
57056;BME280;42945;51.718;5.324;2022-12-17T04:18:27;102223.13;;;-2.41;100.00
57056;BME280;42945;51.718;5.324;2022-12-17T04:21:11;102214.38;;;-2.46;100.00
57056;BME280;42945;51.718;5.324;2022-12-17T04:23:59;102192.63;;;-2.51;100.00
57056;BME280;42945;51.718;5.324;2022-12-17T04:26:48;101853.63;;;-4.39;100.00
57056;BME280;42945;51.718;5.324;2022-12-17T04:29:31;102191.66;;;-2.56;100.00
57056;BME280;42945;51.718;5.324;2022-12-17T04:32:15;102223.72;;;-2.55;100.00
57056;BME280;42945;51.718;5.324;2022-12-17T04:34:59;102218.53;;;-2.55;100.00
57056;BME280;42945;51.718;5.324;2022-12-17T04:37:43;102192.47;;;-2.62;100.00
57056;BME280;42945;51.718;5.324;2022-12-17T04:40:28;102221.13;;;-2.54;100.00
57056;BME280;42945;51.718;5.324;2022-12-17T04:43:12;102113.94;;;-2.95;100.00
57056;BME280;42945;51.718;5.324;2022-12-17T04:45:56;102155.59;;;-2.88;100.00
57056;BME280;42945;51.718;5.324;2022-12-17T04:48:41;102093.69;;;-3.13;100.00
57056;BME280;42945;51.718;5.324;2022-12-17T04:51:25;102230.00;;;-2.44;100.00
57056;BME280;42945;51.718;5.324;2022-12-17T04:54:08;102191.75;;;-2.53;100.00
57056;BME280;42945;51.718;5.324;2022-12-17T04:56:54;102101.66;;;-3.03;100.00
57056;BME280;42945;51.718;5.324;2022-12-17T04:59:37;102221.09;;;-2.57;100.00
57056;BME280;42945;51.718;5.324;2022-12-17T05:02:21;102242.66;;;-2.61;100.00
57056;BME280;42945;51.718;5.324;2022-12-17T05:05:06;102123.81;;;-3.20;100.00
57056;BME280;42945;51.718;5.324;2022-12-17T05:07:54;102221.25;;;-2.49;100.00
57056;BME280;42945;51.718;5.324;2022-12-17T05:10:38;102199.47;;;-2.58;100.00
57056;BME280;42945;51.718;5.324;2022-12-17T05:13:23;102222.72;;;-2.62;100.00
57056;BME280;42945;51.718;5.324;2022-12-17T05:16:07;102262.09;;;-2.42;100.00
57056;BME280;42945;51.718;5.324;2022-12-17T05:18:51;102211.28;;;-2.72;100.00
57056;BME280;42945;51.718;5.324;2022-12-17T05:21:35;102297.97;;;-2.67;100.00
57056;BME280;42945;51.718;5.324;2022-12-17T05:24:19;102033.75;;;-4.14;100.00
57056;BME280;42945;51.718;5.324;2022-12-17T05:27:03;102224.00;;;-2.86;100.00
57056;BME280;42945;51.718;5.324;2022-12-17T05:29:47;102132.09;;;-3.40;100.00
57056;BME280;42945;51.718;5.324;2022-12-17T05:32:31;102164.44;;;-2.78;100.00
57056;BME280;42945;51.718;5.324;2022-12-17T05:35:15;102264.91;;;-2.74;100.00
57056;BME280;42945;51.718;5.324;2022-12-17T05:38:04;102231.88;;;-2.83;100.00
57056;BME280;42945;51.718;5.324;2022-12-17T05:40:50;102122.53;;;-3.42;100.00
57056;BME280;42945;51.718;5.324;2022-12-17T05:43:34;102113.75;;;-3.49;100.00
57056;BME280;42945;51.718;5.324;2022-12-17T05:46:18;102245.03;;;-2.72;100.00
57056;BME280;42945;51.718;5.324;2022-12-17T05:49:02;102350.00;;;-2.18;100.00
57056;BME280;42945;51.718;5.324;2022-12-17T05:51:46;102208.50;;;-2.83;100.00
57056;BME280;42945;51.718;5.324;2022-12-17T05:54:30;102257.50;;;-2.98;100.00
57056;BME280;42945;51.718;5.324;2022-12-17T05:57:31;102251.53;;;-2.94;100.00
57056;BME280;42945;51.718;5.324;2022-12-17T06:00:15;102242.72;;;-3.02;100.00
57056;BME280;42945;51.718;5.324;2022-12-17T06:03:00;102217.31;;;-3.17;100.00
57056;BME280;42945;51.718;5.324;2022-12-17T06:05:44;102038.75;;;-4.22;100.00
57056;BME280;42945;51.718;5.324;2022-12-17T06:08:28;102260.88;;;-3.02;100.00
57056;BME280;42945;51.718;5.324;2022-12-17T06:11:12;102267.28;;;-2.86;100.00
57056;BME280;42945;51.718;5.324;2022-12-17T06:13:56;102122.00;;;-3.67;100.00
57056;BME280;42945;51.718;5.324;2022-12-17T06:16:41;102281.94;;;-2.88;100.00
57056;BME280;42945;51.718;5.324;2022-12-17T06:19:24;102018.88;;;-4.21;100.00
57056;BME280;42945;51.718;5.324;2022-12-17T06:22:08;102257.72;;;-2.87;100.00
57056;BME280;42945;51.718;5.324;2022-12-17T06:24:53;102253.09;;;-3.01;100.00
57056;BME280;42945;51.718;5.324;2022-12-17T06:27:36;102141.75;;;-3.73;100.00
57056;BME280;42945;51.718;5.324;2022-12-17T06:30:20;102227.94;;;-3.05;100.00
57056;BME280;42945;51.718;5.324;2022-12-17T06:33:06;102121.22;;;-3.64;100.00
57056;BME280;42945;51.718;5.324;2022-12-17T06:35:52;102272.91;;;-3.06;100.00
57056;BME280;42945;51.718;5.324;2022-12-17T06:38:36;102125.22;;;-3.79;100.00
57056;BME280;42945;51.718;5.324;2022-12-17T06:41:21;102247.88;;;-3.04;100.00
57056;BME280;42945;51.718;5.324;2022-12-17T06:44:05;102276.53;;;-2.98;100.00
57056;BME280;42945;51.718;5.324;2022-12-17T06:46:49;102246.97;;;-3.06;100.00
57056;BME280;42945;51.718;5.324;2022-12-17T06:49:33;102238.53;;;-2.95;100.00
57056;BME280;42945;51.718;5.324;2022-12-17T06:52:17;102270.41;;;-3.01;100.00
57056;BME280;42945;51.718;5.324;2022-12-17T06:55:01;102321.72;;;-2.89;100.00
57056;BME280;42945;51.718;5.324;2022-12-17T06:57:46;102281.28;;;-3.19;100.00
57056;BME280;42945;51.718;5.324;2022-12-17T07:00:30;102229.88;;;-3.36;100.00
57056;BME280;42945;51.718;5.324;2022-12-17T07:03:14;102300.25;;;-3.22;100.00
57056;BME280;42945;51.718;5.324;2022-12-17T07:06:01;102257.75;;;-3.27;100.00
57056;BME280;42945;51.718;5.324;2022-12-17T07:08:45;102246.47;;;-3.29;100.00
57056;BME280;42945;51.718;5.324;2022-12-17T07:11:29;102238.59;;;-3.71;100.00
57056;BME280;42945;51.718;5.324;2022-12-17T07:14:14;102271.25;;;-3.42;100.00
57056;BME280;42945;51.718;5.324;2022-12-17T07:16:58;102241.19;;;-3.32;100.00
57056;BME280;42945;51.718;5.324;2022-12-17T07:19:42;102301.78;;;-3.31;100.00
57056;BME280;42945;51.718;5.324;2022-12-17T07:22:26;102280.16;;;-3.30;100.00
57056;BME280;42945;51.718;5.324;2022-12-17T07:25:10;102301.91;;;-3.25;100.00
57056;BME280;42945;51.718;5.324;2022-12-17T07:27:55;102346.78;;;-3.28;100.00
57056;BME280;42945;51.718;5.324;2022-12-17T07:30:46;102322.53;;;-3.31;100.00
57056;BME280;42945;51.718;5.324;2022-12-17T07:33:30;102290.06;;;-3.14;100.00
57056;BME280;42945;51.718;5.324;2022-12-17T07:36:14;102321.72;;;-3.29;100.00
57056;BME280;42945;51.718;5.324;2022-12-17T07:38:58;102386.94;;;-3.13;100.00
57056;BME280;42945;51.718;5.324;2022-12-17T07:41:42;102082.09;;;-4.51;100.00
57056;BME280;42945;51.718;5.324;2022-12-17T07:44:26;102316.75;;;-3.18;100.00
57056;BME280;42945;51.718;5.324;2022-12-17T07:47:10;102294.22;;;-3.21;100.00
57056;BME280;42945;51.718;5.324;2022-12-17T07:49:54;102356.88;;;-3.04;100.00
57056;BME280;42945;51.718;5.324;2022-12-17T07:52:38;102017.63;;;-3.11;100.00
57056;BME280;42945;51.718;5.324;2022-12-17T07:55:22;102340.41;;;-3.06;100.00
57056;BME280;42945;51.718;5.324;2022-12-17T07:58:09;102360.03;;;-3.17;100.00
57056;BME280;42945;51.718;5.324;2022-12-17T08:00:54;102408.09;;;-2.97;100.00
57056;BME280;42945;51.718;5.324;2022-12-17T08:03:38;102405.28;;;-3.06;100.00
57056;BME280;42945;51.718;5.324;2022-12-17T08:06:22;102340.31;;;-3.09;100.00
57056;BME280;42945;51.718;5.324;2022-12-17T08:09:06;102432.97;;;-3.06;100.00
57056;BME280;42945;51.718;5.324;2022-12-17T08:11:50;102302.22;;;-3.48;100.00
57056;BME280;42945;51.718;5.324;2022-12-17T08:14:34;102586.66;;;-1.74;100.00
57056;BME280;42945;51.718;5.324;2022-12-17T08:17:18;102381.78;;;-3.10;100.00
57056;BME280;42945;51.718;5.324;2022-12-17T08:20:02;102385.34;;;-3.07;100.00
57056;BME280;42945;51.718;5.324;2022-12-17T08:22:47;102428.28;;;-2.83;100.00
57056;BME280;42945;51.718;5.324;2022-12-17T08:25:31;102338.94;;;-2.93;100.00
57056;BME280;42945;51.718;5.324;2022-12-17T08:28:15;102417.16;;;-2.79;100.00
57056;BME280;42945;51.718;5.324;2022-12-17T08:30:59;102396.09;;;-2.91;100.00
57056;BME280;42945;51.718;5.324;2022-12-17T08:33:43;102380.50;;;-2.91;100.00
57056;BME280;42945;51.718;5.324;2022-12-17T08:36:27;102405.75;;;-2.86;100.00
57056;BME280;42945;51.718;5.324;2022-12-17T08:39:11;102355.97;;;-3.06;100.00
57056;BME280;42945;51.718;5.324;2022-12-17T08:41:55;102244.69;;;-3.69;100.00
57056;BME280;42945;51.718;5.324;2022-12-17T08:44:39;102282.16;;;-3.55;100.00
57056;BME280;42945;51.718;5.324;2022-12-17T08:47:23;102389.22;;;-2.89;100.00
57056;BME280;42945;51.718;5.324;2022-12-17T08:50:08;102408.09;;;-2.97;100.00
57056;BME280;42945;51.718;5.324;2022-12-17T08:53:02;102407.94;;;-3.04;100.00
57056;BME280;42945;51.718;5.324;2022-12-17T08:55:46;102392.09;;;-2.77;100.00
57056;BME280;42945;51.718;5.324;2022-12-17T08:58:30;102429.91;;;-2.88;100.00
57056;BME280;42945;51.718;5.324;2022-12-17T09:01:14;102436.06;;;-2.85;100.00
57056;BME280;42945;51.718;5.324;2022-12-17T09:03:58;102459.25;;;-2.91;100.00
57056;BME280;42945;51.718;5.324;2022-12-17T09:06:42;102377.25;;;-2.83;100.00
57056;BME280;42945;51.718;5.324;2022-12-17T09:09:26;102324.75;;;-3.47;100.00
57056;BME280;42945;51.718;5.324;2022-12-17T09:12:10;102391.81;;;-2.89;100.00
57056;BME280;42945;51.718;5.324;2022-12-17T09:14:54;102441.22;;;-2.86;100.00
57056;BME280;42945;51.718;5.324;2022-12-17T09:17:38;102376.66;;;-2.71;100.00
57056;BME280;42945;51.718;5.324;2022-12-17T09:20:22;102435.13;;;-2.49;100.00
57056;BME280;42945;51.718;5.324;2022-12-17T09:23:06;102437.91;;;-2.41;100.00
57056;BME280;42945;51.718;5.324;2022-12-17T09:25:52;102452.16;;;-2.63;100.00
57056;BME280;42945;51.718;5.324;2022-12-17T09:28:37;102307.69;;;-3.36;100.00
57056;BME280;42945;51.718;5.324;2022-12-17T09:31:21;102487.72;;;-2.20;100.00
57056;BME280;42945;51.718;5.324;2022-12-17T09:34:05;102407.81;;;-2.71;100.00
57056;BME280;42945;51.718;5.324;2022-12-17T09:36:49;102423.00;;;-2.88;100.00
57056;BME280;42945;51.718;5.324;2022-12-17T09:39:32;102406.78;;;-2.79;100.00
57056;BME280;42945;51.718;5.324;2022-12-17T09:45:45;102461.44;;;-2.73;100.00
57056;BME280;42945;51.718;5.324;2022-12-17T09:48:43;102462.44;;;-2.66;100.00
57056;BME280;42945;51.718;5.324;2022-12-17T09:51:34;102418.00;;;-2.80;100.00
57056;BME280;42945;51.718;5.324;2022-12-17T09:54:28;102459.84;;;-2.66;100.00
57056;BME280;42945;51.718;5.324;2022-12-17T09:57:17;102302.47;;;-3.39;100.00
57056;BME280;42945;51.718;5.324;2022-12-17T10:00:14;102408.47;;;-2.80;100.00
57056;BME280;42945;51.718;5.324;2022-12-17T10:02:59;102363.75;;;-3.42;100.00
57056;BME280;42945;51.718;5.324;2022-12-17T10:05:45;102248.28;;;-3.25;100.00
57056;BME280;42945;51.718;5.324;2022-12-17T10:08:29;102339.38;;;-3.12;100.00
57056;BME280;42945;51.718;5.324;2022-12-17T10:11:21;102426.22;;;-2.19;100.00
57056;BME280;42945;51.718;5.324;2022-12-17T10:14:27;102447.84;;;-2.22;100.00
57056;BME280;42945;51.718;5.324;2022-12-17T10:17:20;102427.88;;;-2.64;100.00
57056;BME280;42945;51.718;5.324;2022-12-17T10:20:27;102434.97;;;-2.57;100.00
57056;BME280;42945;51.718;5.324;2022-12-17T10:23:24;102480.47;;;-2.36;100.00
57056;BME280;42945;51.718;5.324;2022-12-17T10:26:08;102461.41;;;-2.74;100.00
57056;BME280;42945;51.718;5.324;2022-12-17T10:29:21;102197.16;;;-4.06;100.00
57056;BME280;42945;51.718;5.324;2022-12-17T10:34:58;102378.66;;;-2.97;100.00
57056;BME280;42945;51.718;5.324;2022-12-17T10:37:42;102457.03;;;-2.77;100.00
57056;BME280;42945;51.718;5.324;2022-12-17T10:40:33;102476.38;;;-2.63;100.00
57056;BME280;42945;51.718;5.324;2022-12-17T10:43:29;102426.78;;;-2.75;100.00
57056;BME280;42945;51.718;5.324;2022-12-17T10:46:25;102413.31;;;-2.95;100.00
57056;BME280;42945;51.718;5.324;2022-12-17T10:49:21;102453.69;;;-2.70;100.00
57056;BME280;42945;51.718;5.324;2022-12-17T10:52:28;102456.78;;;-2.48;100.00
57056;BME280;42945;51.718;5.324;2022-12-17T10:55:24;102470.38;;;-2.62;100.00
57056;BME280;42945;51.718;5.324;2022-12-17T10:58:19;102460.28;;;-2.46;100.00
57056;BME280;42945;51.718;5.324;2022-12-17T11:01:05;102467.97;;;-2.13;100.00
57056;BME280;42945;51.718;5.324;2022-12-17T11:03:57;102466.81;;;-2.26;100.00
57056;BME280;42945;51.718;5.324;2022-12-17T11:06:50;102406.97;;;-2.29;100.00
57056;BME280;42945;51.718;5.324;2022-12-17T11:09:40;102325.78;;;-3.02;100.00
57056;BME280;42945;51.718;5.324;2022-12-17T11:12:35;102472.38;;;-2.50;100.00
57056;BME280;42945;51.718;5.324;2022-12-17T11:15:27;102459.38;;;-2.50;100.00
57056;BME280;42945;51.718;5.324;2022-12-17T11:21:24;102452.75;;;-2.73;100.00
57056;BME280;42945;51.718;5.324;2022-12-17T11:24:13;102422.66;;;-2.64;100.00
57056;BME280;42945;51.718;5.324;2022-12-17T11:27:03;102462.88;;;-2.46;100.00
57056;BME280;42945;51.718;5.324;2022-12-17T11:29:50;102467.91;;;-2.55;100.00
57056;BME280;42945;51.718;5.324;2022-12-17T11:33:13;102455.25;;;-2.78;100.00
57056;BME280;42945;51.718;5.324;2022-12-17T11:36:26;102403.44;;;-2.72;100.00
57056;BME280;42945;51.718;5.324;2022-12-17T11:39:25;102352.88;;;-2.89;100.00
57056;BME280;42945;51.718;5.324;2022-12-17T11:42:17;102355.25;;;-2.99;100.00
57056;BME280;42945;51.718;5.324;2022-12-17T11:48:19;102341.41;;;-2.99;100.00
57056;BME280;42945;51.718;5.324;2022-12-17T11:51:13;102448.84;;;-2.54;100.00
57056;BME280;42945;51.718;5.324;2022-12-17T11:56:57;102453.44;;;-2.44;100.00
57056;BME280;42945;51.718;5.324;2022-12-17T11:59:48;102430.97;;;-2.41;100.00
57056;BME280;42945;51.718;5.324;2022-12-17T12:08:30;102347.16;;;-2.74;100.00
57056;BME280;42945;51.718;5.324;2022-12-17T12:11:36;102390.03;;;-2.92;100.00
57056;BME280;42945;51.718;5.324;2022-12-17T12:14:35;102324.34;;;-3.27;100.00
57056;BME280;42945;51.718;5.324;2022-12-17T12:17:47;102341.59;;;-3.29;100.00
57056;BME280;42945;51.718;5.324;2022-12-17T12:26:32;102423.66;;;-2.59;100.00
57056;BME280;42945;51.718;5.324;2022-12-17T12:29:55;102450.47;;;-2.20;100.00
57056;BME280;42945;51.718;5.324;2022-12-17T12:32:56;102417.97;;;-2.42;100.00
57056;BME280;42945;51.718;5.324;2022-12-17T12:35:44;102425.59;;;-2.50;100.00
57056;BME280;42945;51.718;5.324;2022-12-17T12:38:33;102406.50;;;-2.50;100.00
57056;BME280;42945;51.718;5.324;2022-12-17T12:44:33;102324.97;;;-3.00;100.00
57056;BME280;42945;51.718;5.324;2022-12-17T12:47:29;102456.72;;;-2.51;100.00
57056;BME280;42945;51.718;5.324;2022-12-17T12:53:43;102469.78;;;-2.09;100.00
57056;BME280;42945;51.718;5.324;2022-12-17T12:56:33;102293.13;;;-2.91;100.00
57056;BME280;42945;51.718;5.324;2022-12-17T12:59:24;102400.25;;;-2.18;100.00
57056;BME280;42945;51.718;5.324;2022-12-17T13:02:26;102398.81;;;-2.47;100.00
57056;BME280;42945;51.718;5.324;2022-12-17T13:05:38;102425.06;;;-2.33;100.00
57056;BME280;42945;51.718;5.324;2022-12-17T13:10:34;102453.69;;;-2.32;100.00
57056;BME280;42945;51.718;5.324;2022-12-17T13:13:12;102420.28;;;-2.54;100.00
57056;BME280;42945;51.718;5.324;2022-12-17T13:15:45;102459.50;;;-2.44;100.00
57056;BME280;42945;51.718;5.324;2022-12-17T13:18:35;102338.28;;;-2.84;100.00
57056;BME280;42945;51.718;5.324;2022-12-17T13:23:39;102324.47;;;-3.58;100.00
57056;BME280;42945;51.718;5.324;2022-12-17T13:31:28;102732.94;;;-2.52;100.00
57056;BME280;42945;51.718;5.324;2022-12-17T13:36:52;102439.16;;;-2.63;100.00
57056;BME280;42945;51.718;5.324;2022-12-17T13:39:48;102409.00;;;-2.57;100.00
57056;BME280;42945;51.718;5.324;2022-12-17T13:42:18;102410.16;;;-2.82;100.00
57056;BME280;42945;51.718;5.324;2022-12-17T13:44:45;102421.00;;;-2.62;100.00
57056;BME280;42945;51.718;5.324;2022-12-17T13:47:23;102403.75;;;-2.58;100.00
57056;BME280;42945;51.718;5.324;2022-12-17T13:49:51;102391.72;;;-2.54;100.00
57056;BME280;42945;51.718;5.324;2022-12-17T13:52:19;102445.81;;;-2.74;100.00
57056;BME280;42945;51.718;5.324;2022-12-17T13:54:45;102444.53;;;-2.54;100.00
57056;BME280;42945;51.718;5.324;2022-12-17T13:57:21;102426.09;;;-2.66;100.00
57056;BME280;42945;51.718;5.324;2022-12-17T13:59:58;102440.25;;;-2.53;100.00
57056;BME280;42945;51.718;5.324;2022-12-17T14:02:34;102374.63;;;-2.43;100.00
57056;BME280;42945;51.718;5.324;2022-12-17T14:05:05;102429.91;;;-2.50;100.00
57056;BME280;42945;51.718;5.324;2022-12-17T14:07:32;102463.34;;;-2.64;100.00
57056;BME280;42945;51.718;5.324;2022-12-17T14:09:59;102380.84;;;-2.76;100.00
57056;BME280;42945;51.718;5.324;2022-12-17T14:12:25;102389.84;;;-2.62;100.00
57056;BME280;42945;51.718;5.324;2022-12-17T14:17:25;102419.69;;;-2.82;100.00
57056;BME280;42945;51.718;5.324;2022-12-17T14:20:00;102403.25;;;-2.81;100.00
57056;BME280;42945;51.718;5.324;2022-12-17T14:22:40;102455.56;;;-3.01;100.00
57056;BME280;42945;51.718;5.324;2022-12-17T14:25:22;102439.72;;;-3.13;100.00
57056;BME280;42945;51.718;5.324;2022-12-17T14:28:00;102400.69;;;-3.16;100.00
57056;BME280;42945;51.718;5.324;2022-12-17T14:30:39;102445.56;;;-2.85;100.00
57056;BME280;42945;51.718;5.324;2022-12-17T14:36:00;102428.19;;;-2.88;100.00
57056;BME280;42945;51.718;5.324;2022-12-17T14:38:27;102452.09;;;-3.01;100.00
57056;BME280;42945;51.718;5.324;2022-12-17T14:40:53;102465.50;;;-2.84;100.00
57056;BME280;42945;51.718;5.324;2022-12-17T14:43:28;102474.06;;;-2.88;100.00
57056;BME280;42945;51.718;5.324;2022-12-17T14:45:58;102458.84;;;-3.09;100.00
57056;BME280;42945;51.718;5.324;2022-12-17T14:48:43;102467.63;;;-3.03;100.00
57056;BME280;42945;51.718;5.324;2022-12-17T14:51:39;102441.44;;;-3.13;100.00
57056;BME280;42945;51.718;5.324;2022-12-17T14:56:31;102454.59;;;-3.06;100.00
57056;BME280;42945;51.718;5.324;2022-12-17T14:59:00;102453.34;;;-3.22;100.00
57056;BME280;42945;51.718;5.324;2022-12-17T15:01:26;102181.28;;;-4.53;100.00
57056;BME280;42945;51.718;5.324;2022-12-17T15:03:51;102449.19;;;-3.15;100.00
57056;BME280;42945;51.718;5.324;2022-12-17T15:06:18;102489.50;;;-3.28;100.00
57056;BME280;42945;51.718;5.324;2022-12-17T15:08:45;102429.00;;;-3.27;100.00
57056;BME280;42945;51.718;5.324;2022-12-17T15:11:14;102522.78;;;-3.45;100.00
57056;BME280;42945;51.718;5.324;2022-12-17T15:13:40;102437.59;;;-3.28;100.00
57056;BME280;42945;51.718;5.324;2022-12-17T15:16:06;102435.72;;;-3.35;100.00
57056;BME280;42945;51.718;5.324;2022-12-17T15:18:31;102474.00;;;-3.25;100.00